Time;durP1;ratioP1;P1;durP2;ratioP2;P2;SDS_P1;SDS_P2;PMS_P1;PMS_P2;Temp;Humidity;BMP_temperature;BMP_pressure;BME280_temperature;BME280_humidity;BME280_pressure;Samples;Min_cycle;Max_cycle;Signal;HPM_P1;HPM_P2
2023/01/03 00:01:12;;;;;;;8.50;1.92;;;6.50;99.90;;;5.52;100.00;102261.78;3981699;29;20429;-75
2023/01/03 00:03:15;;;;;;;11.57;2.45;;;6.50;99.90;;;5.57;100.00;102272.00;3987148;29;20118;-75
2023/01/03 00:05:16;;;;;;;14.98;2.08;;;6.40;99.90;;;5.55;100.00;102271.25;3981427;29;20034;-75
2023/01/03 00:07:32;;;;;;;5.20;1.60;;;6.40;99.90;;;5.54;100.00;102264.31;3982914;29;20562;-75
2023/01/03 00:09:33;;;;;;;12.88;2.15;;;6.40;99.90;;;5.51;100.00;102256.63;3989655;29;20085;-75
2023/01/03 00:13:54;;;;;;;15.32;2.63;;;6.50;99.90;;;5.57;100.00;102269.38;3983104;29;20052;-75
2023/01/03 00:15:55;;;;;;;12.20;2.20;;;6.50;99.90;;;5.57;100.00;102266.75;3982556;29;20113;-75
2023/01/03 00:17:56;;;;;;;9.05;1.80;;;6.50;99.90;;;5.55;100.00;102264.22;3981476;29;20038;-75
2023/01/03 00:19:57;;;;;;;9.68;2.13;;;6.50;99.90;;;5.57;100.00;102259.75;3990893;29;20031;-75
2023/01/03 00:21:58;;;;;;;8.73;1.83;;;6.50;99.90;;;5.55;100.00;102256.34;3988891;29;20030;-75
2023/01/03 00:23:59;;;;;;;12.70;2.17;;;6.50;99.90;;;5.57;100.00;102254.50;3981226;29;20035;-75
2023/01/03 00:26:11;;;;;;;9.43;2.75;;;6.50;99.90;;;5.59;100.00;102257.03;3981279;29;20475;-75
2023/01/03 00:28:12;;;;;;;7.85;2.33;;;6.60;99.90;;;5.61;100.00;102259.56;3981067;29;20031;-75
2023/01/03 00:30:13;;;;;;;7.03;2.00;;;6.60;99.90;;;5.60;100.00;102269.19;3987807;29;20092;-75
2023/01/03 00:32:14;;;;;;;11.48;1.88;;;6.50;99.90;;;5.59;100.00;102264.88;3981032;29;20099;-75
2023/01/03 00:34:15;;;;;;;7.30;2.00;;;6.50;99.90;;;5.56;100.00;102265.06;3981162;29;20474;-76
2023/01/03 00:36:16;;;;;;;14.15;2.30;;;6.50;99.90;;;5.57;100.00;102266.75;3980994;29;20023;-75
2023/01/03 00:38:17;;;;;;;12.35;2.70;;;6.50;99.90;;;5.58;100.00;102261.41;3982357;29;20063;-75
2023/01/03 00:40:17;;;;;;;12.48;2.38;;;6.50;99.90;;;5.56;100.00;102265.91;3986455;29;20035;-75
2023/01/03 00:42:18;;;;;;;13.93;2.20;;;6.50;99.90;;;5.59;100.00;102268.34;3983930;29;20050;-75
2023/01/03 00:44:20;;;;;;;14.75;2.10;;;6.50;99.90;;;5.63;100.00;102268.19;3965872;29;20076;-75
2023/01/03 00:46:22;;;;;;;9.27;2.40;;;6.60;99.90;;;5.73;100.00;102280.66;3981110;29;20039;-75
2023/01/03 00:48:23;;;;;;;12.38;2.33;;;6.60;99.90;;;5.74;100.00;102271.00;3982116;29;20031;-75
2023/01/03 00:50:23;;;;;;;9.52;2.75;;;6.70;99.90;;;5.79;100.00;102272.47;3982437;29;20030;-75
2023/01/03 00:52:24;;;;;;;7.50;1.77;;;6.70;99.90;;;5.74;100.00;102265.78;3981913;29;20384;-75
2023/01/03 00:54:25;;;;;;;12.82;1.85;;;6.70;99.90;;;5.72;100.00;102275.50;3980856;29;20034;-75
2023/01/03 00:56:33;;;;;;;10.85;1.77;;;6.70;99.90;;;5.69;100.00;102268.69;3980840;29;20114;-75
2023/01/03 00:58:35;;;;;;;10.98;2.00;;;6.60;99.90;;;5.67;100.00;102267.09;3981906;29;20053;-75
2023/01/03 01:00:36;;;;;;;8.15;1.95;;;6.60;99.90;;;5.64;100.00;102259.41;3991122;29;20027;-75
2023/01/03 01:02:37;;;;;;;14.25;2.28;;;6.60;99.90;;;5.62;100.00;102266.47;3981406;29;20042;-76
2023/01/03 01:04:38;;;;;;;8.32;1.48;;;6.60;99.90;;;5.56;100.00;102265.91;3981915;29;20031;-75
2023/01/03 01:06:46;;;;;;;11.73;1.90;;;6.60;99.90;;;5.55;100.00;102272.06;3992014;29;20038;-75
2023/01/03 01:08:48;;;;;;;11.93;2.38;;;6.50;99.90;;;5.52;100.00;102268.78;3980948;29;20050;-75
2023/01/03 01:11:01;;;;;;;10.38;1.90;;;6.50;99.90;;;5.49;100.00;102269.81;4003778;29;20058;-75
2023/01/03 01:13:02;;;;;;;12.38;2.10;;;6.40;99.90;;;5.42;100.00;102262.38;3981757;29;20046;-75
2023/01/03 01:15:04;;;;;;;9.73;2.35;;;6.40;99.90;;;5.44;100.00;102263.97;3980463;29;20038;-75
2023/01/03 01:17:07;;;;;;;11.10;1.63;;;6.30;99.90;;;5.39;100.00;102257.31;3980507;29;20042;-75
2023/01/03 01:19:08;;;;;;;13.90;2.20;;;6.40;99.90;;;5.36;100.00;102255.72;3981731;29;20031;-75
2023/01/03 01:21:20;;;;;;;12.95;1.70;;;6.30;99.90;;;5.35;100.00;102263.63;4000324;29;20291;-76
2023/01/03 01:23:21;;;;;;;10.32;1.85;;;6.30;99.90;;;5.32;100.00;102261.19;3981482;29;20063;-76
2023/01/03 01:25:22;;;;;;;7.82;1.50;;;6.30;99.90;;;5.31;100.00;102263.00;3981421;29;20066;-76
2023/01/03 01:27:22;;;;;;;8.63;1.55;;;6.20;99.90;;;5.32;100.00;102269.88;3965315;29;20027;-75
2023/01/03 01:29:24;;;;;;;4.40;1.38;;;6.20;99.90;;;5.29;100.00;102264.81;3984391;29;20079;-75
2023/01/03 01:31:26;;;;;;;7.15;2.03;;;6.20;99.90;;;5.22;100.00;102257.41;4001372;29;20046;-75
2023/01/03 01:33:28;;;;;;;9.88;2.05;;;6.20;99.90;;;5.19;100.00;102266.28;3995446;29;20522;-75
2023/01/03 01:35:29;;;;;;;18.02;3.10;;;6.10;99.90;;;5.20;100.00;102267.94;3995332;29;20034;-75
2023/01/03 01:37:30;;;;;;;11.75;2.25;;;6.10;99.90;;;5.24;100.00;102264.25;3981331;29;20074;-75
2023/01/03 01:39:32;;;;;;;7.03;2.35;;;6.10;99.90;;;5.26;100.00;102270.22;3987702;29;20034;-75
2023/01/03 01:46:26;;;;;;;4.43;1.70;;;6.20;99.90;;;5.25;100.00;102268.56;3981278;29;20042;-75
2023/01/03 01:48:27;;;;;;;9.25;2.17;;;6.20;99.90;;;5.30;100.00;102281.38;3980113;29;20035;-75
2023/01/03 01:50:38;;;;;;;5.63;1.75;;;6.20;99.90;;;5.27;100.00;102279.78;3980808;29;20035;-75
2023/01/03 01:53:30;;;;;;;6.53;1.95;;;6.20;99.90;;;5.23;100.00;102283.47;3980649;29;20444;-75
2023/01/03 01:55:40;;;;;;;6.95;2.55;;;6.20;99.90;;;5.24;100.00;102279.94;3965970;29;20051;-75
2023/01/03 01:57:43;;;;;;;10.40;2.35;;;6.20;99.90;;;5.23;100.00;102286.09;3984654;29;20030;-75
2023/01/03 01:59:44;;;;;;;10.27;2.35;;;6.20;99.90;;;5.19;100.00;102276.75;4007789;29;20518;-76
2023/01/03 02:01:48;;;;;;;12.73;2.83;;;6.20;99.90;;;5.21;100.00;102285.34;3999756;29;20027;-75
2023/01/03 02:04:06;;;;;;;6.97;2.08;;;6.10;99.90;;;5.17;100.00;102277.75;3981549;29;20046;-75
2023/01/03 02:06:11;;;;;;;11.95;2.22;;;6.10;99.90;;;5.12;100.00;102274.53;3998767;29;20030;-75
2023/01/03 02:08:12;;;;;;;7.32;2.00;;;6.10;99.90;;;5.12;100.00;102282.38;3981011;29;20034;-75
2023/01/03 02:10:12;;;;;;;6.65;1.77;;;6.10;99.90;;;5.20;100.00;102288.88;3988495;29;20630;-75
2023/01/03 02:13:07;;;;;;;13.25;2.70;;;6.10;99.90;;;5.22;100.00;102296.66;3981026;29;20045;-75
2023/01/03 02:15:32;;;;;;;8.38;1.60;;;6.20;99.90;;;5.23;100.00;102298.31;3979878;29;20095;-75
2023/01/03 02:18:09;;;;;;;9.93;2.60;;;6.20;99.90;;;5.20;100.00;102301.94;3980996;29;20103;-75
2023/01/03 02:20:35;;;;;;;8.55;1.50;;;6.10;99.90;;;5.16;100.00;102297.00;3982211;29;20027;-75
2023/01/03 02:23:08;;;;;;;10.10;1.73;;;6.10;99.90;;;5.20;100.00;102299.34;3979738;29;20051;-75
2023/01/03 02:25:34;;;;;;;8.57;1.65;;;6.10;99.90;;;5.21;100.00;102306.28;3980866;29;20030;-75
2023/01/03 02:27:34;;;;;;;;;;;6.10;99.90;;;5.23;100.00;102309.63;3984598;29;20073;-75
2023/01/03 02:30:19;;;;;;;9.45;1.58;;;6.20;99.90;;;5.39;100.00;102300.03;3979915;29;19913;-75
2023/01/03 02:33:05;;;;;;;16.70;2.35;;;6.30;99.90;;;5.63;100.00;102312.69;3967772;29;20084;-75
2023/01/03 02:35:25;;;;;;;7.57;1.40;;;6.50;99.90;;;5.74;100.00;102313.75;3964183;30;20047;-75
2023/01/03 02:38:07;;;;;;;6.47;1.83;;;6.60;99.90;;;5.76;100.00;102318.91;3980863;29;20031;-75
2023/01/03 02:40:38;;;;;;;9.73;2.40;;;6.60;99.90;;;5.70;100.00;102322.75;3977419;29;20038;-75
2023/01/03 02:42:56;;;;;;;7.22;1.88;;;6.60;99.90;;;5.67;100.00;102324.69;3996192;29;20121;-75
2023/01/03 02:45:15;;;;;;;4.40;1.38;;;6.60;99.90;;;5.69;100.00;102322.81;3980638;29;20046;-75
2023/01/03 02:47:21;;;;;;;8.15;1.23;;;6.60;99.90;;;5.65;100.00;102316.88;3979625;29;20073;-75
2023/01/03 02:49:49;;;;;;;11.45;2.05;;;6.60;99.90;;;5.71;100.00;102316.56;3979388;29;20081;-75
2023/01/03 02:52:04;;;;;;;8.35;1.60;;;6.60;99.90;;;5.76;100.00;102321.53;3988518;29;20031;-75
2023/01/03 02:54:10;;;;;;;11.98;1.80;;;6.70;99.90;;;5.77;100.00;102308.34;3995600;29;20042;-75
2023/01/03 02:56:25;;;;;;;8.38;2.05;;;6.70;99.90;;;5.74;100.00;102308.53;3992363;29;20091;-75
2023/01/03 02:58:30;;;;;;;4.38;1.17;;;6.70;99.90;;;5.72;100.00;102306.94;3982517;29;20103;-75
2023/01/03 03:00:37;;;;;;;10.90;1.70;;;6.60;99.90;;;5.64;100.00;102309.13;4002884;29;20109;-75
2023/01/03 03:02:43;;;;;;;9.35;1.70;;;6.60;99.90;;;5.60;100.00;102311.06;3996703;29;20121;-75
2023/01/03 03:04:48;;;;;;;9.38;1.75;;;6.50;99.90;;;5.49;100.00;102295.13;3997276;29;20035;-75
2023/01/03 03:07:11;;;;;;;5.75;1.20;;;6.40;99.90;;;5.45;100.00;102301.47;3997042;29;20090;-76
2023/01/03 03:09:12;;;;;;;8.55;1.42;;;6.40;99.90;;;5.37;100.00;102291.44;3982240;29;20104;-75
2023/01/03 03:14:00;;;;;;;10.73;2.00;;;6.30;99.90;;;5.32;100.00;102287.34;3982332;29;20096;-75
2023/01/03 03:16:46;;;;;;;8.00;1.40;;;6.20;99.90;;;5.29;100.00;102282.28;3982479;29;20121;-75
2023/01/03 03:19:00;;;;;;;6.82;1.90;;;6.20;99.90;;;5.26;100.00;102282.47;3991679;29;20143;-75
2023/01/03 03:25:53;;;;;;;11.95;1.88;;;6.20;99.90;;;5.25;100.00;102281.66;3994715;29;20069;-75
2023/01/03 03:30:26;;;;;;;13.32;1.67;;;6.20;99.90;;;5.19;100.00;102274.13;3985314;29;20530;-75
2023/01/03 03:32:31;;;;;;;14.10;2.83;;;6.20;99.90;;;5.24;100.00;102287.78;4003014;29;20050;-75
2023/01/03 03:34:37;;;;;;;8.75;1.60;;;6.20;99.90;;;5.22;100.00;102275.72;3996754;29;20038;-75
2023/01/03 03:36:56;;;;;;;10.45;1.90;;;6.20;99.90;;;5.25;100.00;102281.66;3996859;29;20027;-75
2023/01/03 03:38:57;;;;;;;9.18;2.45;;;6.20;99.90;;;5.20;100.00;102278.41;3989096;29;20062;-75
2023/01/03 03:46:14;;;;;;;12.70;2.00;;;6.10;99.90;;;5.10;100.00;102277.25;3981605;29;20058;-75
2023/01/03 03:49:36;;;;;;;9.38;1.50;;;6.00;99.90;;;5.09;100.00;102288.63;3988295;29;20057;-76
2023/01/03 03:51:10;;;;;;;9.63;2.05;;;6.00;99.90;;;5.03;100.00;102278.50;3986160;29;20380;-75
2023/01/03 03:53:13;;;;;;;5.95;1.45;;;6.00;99.90;;;5.08;100.00;102284.31;3981792;29;20420;-75
2023/01/03 03:55:33;;;;;;;9.70;1.60;;;6.00;99.90;;;5.03;100.00;102283.72;3981548;29;20124;-75
2023/01/03 03:57:51;;;;;;;6.60;1.88;;;5.90;99.90;;;5.02;100.00;102285.50;3981957;29;20137;-75
2023/01/03 03:59:58;;;;;;;9.02;1.65;;;5.90;99.90;;;5.02;100.00;102287.25;3995829;29;20117;-75
2023/01/03 04:02:04;;;;;;;8.07;1.58;;;6.00;99.90;;;4.99;100.00;102290.88;3996432;29;20090;-75
2023/01/03 04:04:20;;;;;;;7.10;1.88;;;5.90;99.90;;;4.95;100.00;102278.06;3996587;29;20170;-75
2023/01/03 04:06:46;;;;;;;11.35;2.38;;;5.90;99.90;;;4.92;100.00;102275.63;3996643;29;20483;-75
2023/01/03 04:08:47;;;;;;;11.40;1.95;;;5.90;99.90;;;4.97;100.00;102281.44;3996395;29;20087;-75
2023/01/03 04:10:48;;;;;;;8.90;1.30;;;5.90;99.90;;;5.01;100.00;102288.19;3990927;29;20102;-75
2023/01/03 04:12:50;;;;;;;11.95;1.75;;;5.90;99.90;;;5.01;100.00;102289.06;3981501;29;20042;-75
2023/01/03 04:14:51;;;;;;;10.75;1.35;;;5.90;99.90;;;4.99;100.00;102282.19;3991344;29;20041;-76
2023/01/03 04:16:52;;;;;;;5.18;1.45;;;5.90;99.90;;;5.03;100.00;102291.56;3983019;29;20034;-75
2023/01/03 04:18:53;;;;;;;8.60;1.25;;;5.90;99.90;;;5.03;100.00;102296.81;3982570;29;20035;-75
2023/01/03 04:20:54;;;;;;;8.55;1.52;;;5.90;99.90;;;4.99;100.00;102290.03;3987633;29;20054;-75
2023/01/03 04:22:56;;;;;;;14.52;1.50;;;5.90;99.90;;;4.96;100.00;102288.44;3986080;29;20407;-75
2023/01/03 04:24:56;;;;;;;8.20;1.52;;;5.90;99.90;;;4.95;100.00;102284.16;3980937;29;20035;-75
2023/01/03 04:26:57;;;;;;;7.97;1.65;;;5.90;99.90;;;4.95;100.00;102285.91;3981328;29;20152;-76
2023/01/03 04:28:58;;;;;;;6.50;1.38;;;5.90;99.90;;;4.93;100.00;102285.13;3982367;29;20053;-75
2023/01/03 04:30:59;;;;;;;12.15;2.33;;;5.90;99.90;;;4.92;100.00;102291.31;3987790;29;20062;-75
2023/01/03 04:33:04;;;;;;;7.40;1.52;;;5.80;99.90;;;4.89;100.00;102283.63;3982818;29;20043;-75
2023/01/03 04:35:05;;;;;;;8.18;1.67;;;5.80;99.90;;;4.81;100.00;102276.19;3982336;29;20035;-75
2023/01/03 04:37:06;;;;;;;8.02;1.23;;;5.80;99.90;;;4.79;100.00;102275.44;4003079;29;20038;-75
2023/01/03 04:39:07;;;;;;;9.77;1.52;;;5.80;99.90;;;4.78;100.00;102284.19;3988323;29;20042;-75
2023/01/03 04:41:08;;;;;;;4.07;1.35;;;5.70;99.90;;;4.73;100.00;102293.19;3987806;29;20620;-75
2023/01/03 04:45:29;;;;;;;4.65;1.20;;;5.70;99.90;;;4.68;100.00;102300.44;3981241;29;20084;-75
2023/01/03 04:47:30;;;;;;;9.77;1.98;;;5.60;99.90;;;4.62;100.00;102290.31;3982005;29;20031;-75
2023/01/03 04:49:31;;;;;;;5.93;1.45;;;5.60;99.90;;;4.58;100.00;102287.00;3982848;29;20031;-75
2023/01/03 04:51:32;;;;;;;4.47;1.30;;;5.50;99.90;;;4.56;100.00;102294.09;3987573;29;20095;-75
2023/01/03 04:53:33;;;;;;;7.50;2.00;;;5.50;99.90;;;4.51;100.00;102292.66;3981089;29;20499;-75
2023/01/03 04:55:34;;;;;;;7.30;1.50;;;5.50;99.90;;;4.48;100.00;102288.41;3981567;29;20046;-76
2023/01/03 04:57:35;;;;;;;7.22;1.02;;;5.50;99.90;;;4.51;100.00;102295.25;3981519;29;20411;-75
2023/01/03 04:59:37;;;;;;;9.15;1.65;;;5.50;99.90;;;4.59;100.00;102300.91;3988481;29;20402;-75
2023/01/03 05:01:38;;;;;;;7.85;1.30;;;5.60;99.90;;;4.72;100.00;102309.81;3987273;29;20558;-75
2023/01/03 05:03:39;;;;;;;12.25;2.95;;;5.70;99.90;;;4.91;100.00;102305.31;3981681;29;20035;-76
2023/01/03 05:05:40;;;;;;;8.63;1.83;;;5.80;99.90;;;5.08;100.00;102302.63;3981917;29;20023;-75
2023/01/03 05:07:41;;;;;;;8.57;1.98;;;6.00;99.90;;;5.19;100.00;102292.44;3981872;29;20092;-75
2023/01/03 05:09:43;;;;;;;9.77;2.25;;;6.10;99.90;;;5.20;100.00;102293.25;3982239;29;20493;-75
2023/01/03 05:11:44;;;;;;;12.07;1.58;;;6.10;99.90;;;5.14;100.00;102304.91;3998711;29;20026;-75
2023/01/03 05:13:44;;;;;;;9.07;1.60;;;6.10;99.90;;;5.04;100.00;102295.88;3981781;29;20031;-75
2023/01/03 05:15:45;;;;;;;8.77;1.77;;;6.00;99.90;;;4.97;100.00;102290.13;3981833;29;20463;-75
2023/01/03 05:17:46;;;;;;;10.73;1.92;;;5.90;99.90;;;5.00;100.00;102299.59;3987576;29;20035;-75
2023/01/03 05:26:47;;;;;;;9.98;2.33;;;5.80;99.90;;;4.83;100.00;102312.72;3981382;29;20567;-75
2023/01/03 05:28:53;;;;;;;13.13;2.50;;;5.80;99.90;;;4.80;100.00;102316.34;3995501;29;20058;-75
2023/01/03 05:30:56;;;;;;;13.25;2.00;;;5.80;99.90;;;4.84;100.00;102325.69;3995183;29;20038;-75
2023/01/03 05:32:57;;;;;;;10.82;2.72;;;5.80;99.90;;;4.90;100.00;102324.50;4010230;29;20073;-75
2023/01/03 05:34:58;;;;;;;9.68;2.15;;;5.90;99.90;;;4.95;100.00;102315.53;3996622;29;20038;-76
2023/01/03 05:36:59;;;;;;;12.18;1.98;;;5.90;99.90;;;4.99;100.00;102321.41;3995421;29;20034;-75
2023/01/03 05:39:00;;;;;;;13.48;2.45;;;6.00;99.90;;;5.03;100.00;102326.41;3996254;29;20041;-75
2023/01/03 05:41:01;;;;;;;12.27;2.00;;;6.00;99.90;;;5.05;100.00;102317.66;3995525;29;20038;-75
2023/01/03 05:43:01;;;;;;;8.00;2.20;;;6.00;99.90;;;5.01;100.00;102317.81;3981198;29;20393;-75
2023/01/03 05:45:03;;;;;;;15.48;2.75;;;6.00;99.90;;;4.98;100.00;102317.97;3981905;29;20034;-75
2023/01/03 05:47:04;;;;;;;8.07;2.13;;;6.00;99.90;;;4.95;100.00;102322.53;3980237;29;20031;-75
2023/01/03 05:49:05;;;;;;;10.82;2.20;;;5.90;99.90;;;4.92;100.00;102334.00;3981299;29;20086;-75
2023/01/03 05:51:06;;;;;;;9.50;1.95;;;5.90;99.90;;;4.87;100.00;102328.16;3989052;29;20510;-75
2023/01/03 05:53:07;;;;;;;11.05;2.28;;;5.90;99.90;;;4.83;100.00;102331.88;3981156;29;20117;-75
2023/01/03 05:55:09;;;;;;;12.30;2.47;;;5.80;99.90;;;4.86;100.00;102333.47;3981226;29;20102;-75
2023/01/03 05:57:09;;;;;;;10.88;2.17;;;5.80;99.90;;;4.85;100.00;102339.63;3979798;29;20038;-75
2023/01/03 05:59:11;;;;;;;10.13;2.22;;;5.90;99.90;;;4.90;100.00;102342.81;3995085;29;20117;-75
2023/01/03 06:01:14;;;;;;;13.13;2.65;;;5.90;99.90;;;4.86;100.00;102339.53;3987245;29;20407;-75
2023/01/03 06:03:15;;;;;;;10.98;2.20;;;5.90;99.90;;;4.89;100.00;102343.75;3979814;29;20453;-75
2023/01/03 06:05:16;;;;;;;17.67;2.67;;;5.90;99.90;;;4.91;100.00;102347.13;3981038;29;20062;-75
2023/01/03 06:07:17;;;;;;;13.15;2.45;;;5.90;99.90;;;5.02;100.00;102347.41;3980695;29;20046;-75
2023/01/03 06:09:18;;;;;;;9.70;2.58;;;6.00;99.90;;;5.16;100.00;102338.84;3987676;29;20404;-75
2023/01/03 06:11:19;;;;;;;8.65;2.63;;;6.10;99.90;;;5.29;100.00;102348.53;3983723;29;20031;-75
2023/01/03 06:13:22;;;;;;;10.70;2.28;;;6.20;99.90;;;5.33;100.00;102351.84;3980880;29;20039;-75
2023/01/03 06:15:23;;;;;;;5.47;2.38;;;6.20;99.90;;;5.32;100.00;102340.53;3979836;29;20096;-75
2023/01/03 06:19:43;;;;;;;9.10;2.50;;;6.20;99.90;;;5.28;100.00;102341.66;3980820;29;20049;-75
2023/01/03 06:21:44;;;;;;;8.95;2.50;;;6.20;99.90;;;5.31;100.00;102341.47;3991337;29;20063;-75
2023/01/03 06:23:48;;;;;;;13.77;2.78;;;6.20;99.90;;;5.34;100.00;102348.31;3980860;29;20027;-75
2023/01/03 06:25:49;;;;;;;7.50;2.40;;;6.30;99.90;;;5.28;100.00;102349.50;3989695;29;20452;-75
2023/01/03 06:27:50;;;;;;;13.23;2.80;;;6.20;99.90;;;5.27;100.00;102350.41;3994349;29;20034;-75
2023/01/03 06:29:50;;;;;;;14.27;2.72;;;6.20;99.90;;;5.21;100.00;102345.50;3993111;29;20133;-75
2023/01/03 06:31:51;;;;;;;14.77;4.82;;;6.20;99.90;;;5.16;100.00;102344.91;3988895;29;20051;-75
2023/01/03 06:33:52;;;;;;;43.30;19.88;;;6.10;99.90;;;5.11;100.00;102340.88;3979724;29;20042;-75
2023/01/03 06:35:53;;;;;;;36.40;19.95;;;6.10;99.90;;;5.07;100.00;102334.94;3979535;29;20039;-75
2023/01/03 06:37:54;;;;;;;35.40;19.98;;;6.10;99.90;;;4.99;100.00;102331.88;3980576;29;20073;-75
2023/01/03 06:39:55;;;;;;;30.30;16.02;;;6.00;99.90;;;4.93;100.00;102337.44;3987075;29;20031;-75
2023/01/03 06:41:56;;;;;;;25.80;13.52;;;5.90;99.90;;;4.93;100.00;102347.88;3986835;29;20030;-75
2023/01/03 06:43:57;;;;;;;23.45;11.55;;;5.90;99.90;;;4.88;100.00;102342.91;3980558;29;20039;-75
2023/01/03 06:53:12;;;;;;;18.80;8.70;;;5.90;99.90;;;4.87;100.00;102329.91;3979755;29;20099;-75
2023/01/03 06:55:13;;;;;;;19.20;7.20;;;5.90;99.90;;;4.87;100.00;102338.59;3980473;29;20083;-75
2023/01/03 06:57:14;;;;;;;16.95;5.40;;;5.90;99.90;;;4.87;100.00;102340.38;3979097;29;20043;-75
2023/01/03 06:59:15;;;;;;;13.98;4.50;;;5.90;99.90;;;4.84;100.00;102335.28;3981911;29;20035;-76
2023/01/03 07:01:17;;;;;;;13.40;4.75;;;5.90;99.90;;;4.84;100.00;102340.53;3988525;29;20038;-76
2023/01/03 07:03:19;;;;;;;12.27;4.03;;;5.80;99.90;;;4.74;100.00;102329.72;3979292;29;20511;-77
2023/01/03 07:05:20;;;;;;;14.02;5.00;;;5.80;99.90;;;4.73;100.00;102327.19;3979178;29;20123;-76
2023/01/03 07:07:21;;;;;;;12.52;4.68;;;5.80;99.90;;;4.76;100.00;102332.25;3980548;29;20031;-76
2023/01/03 07:09:23;;;;;;;22.52;4.88;;;5.80;99.90;;;4.76;100.00;102334.84;3981359;29;20479;-76
2023/01/03 07:11:23;;;;;;;10.38;4.18;;;5.70;99.90;;;4.72;100.00;102336.78;3992095;29;20026;-76
2023/01/03 07:15:45;;;;;;;13.35;4.03;;;5.70;99.90;;;4.69;100.00;102339.56;3980378;29;20099;-76
2023/01/03 07:17:46;;;;;;;17.95;5.53;;;5.70;99.90;;;4.70;100.00;102337.78;3979277;29;20044;-76
2023/01/03 07:19:47;;;;;;;15.25;6.70;;;5.60;99.90;;;4.70;100.00;102345.63;3984390;29;20426;-77
2023/01/03 07:21:47;;;;;;;16.73;7.05;;;5.70;99.90;;;4.64;100.00;102333.72;3987160;29;20038;-77
2023/01/03 07:23:49;;;;;;;18.02;7.03;;;5.60;99.90;;;4.65;100.00;102343.28;3978976;29;20035;-77
2023/01/03 07:25:54;;;;;;;23.50;7.20;;;5.60;99.90;;;4.65;100.00;102334.59;3979263;29;20502;-76
2023/01/03 07:27:56;;;;;;;18.90;7.60;;;5.60;99.90;;;4.62;100.00;102332.97;3966274;29;20094;-77
2023/01/03 07:29:56;;;;;;;23.80;8.00;;;5.60;99.90;;;4.64;100.00;102340.72;3982451;29;20031;-76
2023/01/03 07:31:58;;;;;;;16.65;7.82;;;5.60;99.90;;;4.67;100.00;102337.94;3983359;29;20051;-77
2023/01/03 07:34:00;;;;;;;22.15;10.10;;;5.60;99.90;;;4.67;100.00;102343.19;3980282;29;20110;-77
2023/01/03 07:36:04;;;;;;;21.33;9.43;;;5.60;99.90;;;4.65;100.00;102337.19;3980219;29;20035;-77
2023/01/03 07:38:06;;;;;;;25.75;9.85;;;5.60;99.90;;;4.63;100.00;102326.81;3979132;29;20039;-77
2023/01/03 07:40:08;;;;;;;19.70;7.97;;;5.60;99.90;;;4.62;100.00;102327.75;3973561;29;20051;-77
2023/01/03 07:44:28;;;;;;;23.90;8.10;;;5.60;99.90;;;4.65;100.00;102338.03;3982856;29;20116;-77
2023/01/03 07:46:31;;;;;;;19.00;7.38;;;5.60;99.90;;;4.72;100.00;102343.81;3982986;29;20027;-77
2023/01/03 07:48:33;;;;;;;28.48;7.82;;;5.60;99.90;;;4.74;100.00;102348.03;3982735;29;20027;-77
2023/01/03 07:50:35;;;;;;;18.73;6.30;;;5.60;99.90;;;4.78;100.00;102346.09;3993470;29;20064;-77
2023/01/03 07:52:36;;;;;;;19.60;7.07;;;5.70;99.90;;;4.84;100.00;102346.59;3982360;29;20019;-77
2023/01/03 07:54:37;;;;;;;24.38;8.70;;;5.80;99.90;;;4.89;100.00;102342.00;3982735;29;20037;-77
2023/01/03 07:56:38;;;;;;;24.73;8.68;;;5.80;99.90;;;5.00;100.00;102349.25;3981708;29;20074;-76
2023/01/03 07:58:42;;;;;;;18.15;7.43;;;5.90;99.90;;;5.09;100.00;102351.41;3982779;29;20031;-77
2023/01/03 08:00:43;;;;;;;20.80;6.50;;;6.00;99.90;;;5.14;100.00;102354.59;4006009;29;20030;-77
2023/01/03 08:02:43;;;;;;;11.57;5.45;;;6.00;99.90;;;5.19;100.00;102357.84;3992171;29;20043;-77
2023/01/03 08:04:45;;;;;;;17.50;6.13;;;6.10;99.90;;;5.21;100.00;102347.28;3981590;29;20035;-77
2023/01/03 08:06:46;;;;;;;25.15;8.18;;;6.10;99.90;;;5.30;100.00;102358.09;3981508;29;20157;-77
2023/01/03 08:13:32;;;;;;;33.22;11.85;;;6.40;99.90;;;5.41;100.00;102374.06;3996504;29;20452;-77
2023/01/03 08:15:33;;;;;;;23.42;9.00;;;6.40;99.90;;;5.51;100.00;102384.88;3981500;29;20035;-77
2023/01/03 08:17:34;;;;;;;21.73;7.68;;;6.40;99.90;;;5.53;100.00;102376.00;3982554;29;20058;-77
2023/01/03 08:19:35;;;;;;;24.63;6.68;;;6.50;99.90;;;5.63;100.00;102384.22;3985285;29;20026;-77
2023/01/03 08:21:36;;;;;;;22.67;7.22;;;6.60;99.90;;;5.76;100.00;102389.63;4001290;29;20033;-77
2023/01/03 08:23:37;;;;;;;23.52;8.55;;;6.60;99.90;;;5.86;100.00;102393.44;3982339;29;20038;-77
2023/01/03 08:25:39;;;;;;;19.55;7.47;;;6.70;99.90;;;5.99;100.00;102394.44;3981319;29;20031;-77
2023/01/03 08:27:40;;;;;;;21.27;7.22;;;6.90;99.90;;;6.03;100.00;102393.34;3981215;29;20075;-76
2023/01/03 08:29:40;;;;;;;19.80;6.25;;;6.90;99.90;;;6.08;100.00;102399.16;3984185;29;20030;-77
2023/01/03 08:31:50;;;;;;;16.45;6.25;;;7.00;99.90;;;6.14;100.00;102401.44;3982886;29;20420;-77
2023/01/03 08:34:02;;;;;;;21.00;5.50;;;7.00;99.90;;;6.17;100.00;102401.25;3981197;29;20117;-77
2023/01/03 08:36:07;;;;;;;20.02;5.72;;;7.10;99.90;;;6.24;100.00;102399.16;3981230;29;20440;-76
2023/01/03 08:38:15;;;;;;;15.82;4.82;;;7.20;99.90;;;6.29;100.00;102418.91;3981158;29;20039;-77
2023/01/03 08:40:17;;;;;;;19.75;5.22;;;7.20;99.90;;;6.31;100.00;102406.56;3989330;29;20035;-77
2023/01/03 08:42:22;;;;;;;23.98;4.93;;;7.30;99.90;;;6.36;100.00;102414.97;3989352;29;20056;-77
2023/01/03 08:44:23;;;;;;;24.58;4.82;;;7.30;99.90;;;6.41;100.00;102418.22;3997507;29;20043;-77
2023/01/03 08:46:25;;;;;;;19.63;4.35;;;7.30;99.90;;;6.47;100.00;102417.84;3995966;29;20125;-77
2023/01/03 08:48:26;;;;;;;24.98;4.90;;;7.40;99.90;;;6.52;100.00;102414.94;3982146;29;20039;-77
2023/01/03 08:50:29;;;;;;;13.73;3.53;;;7.50;99.90;;;6.60;100.00;102429.28;3989792;29;20037;-77
2023/01/03 08:52:30;;;;;;;16.45;3.67;;;7.50;99.90;;;6.71;100.00;102441.81;3990305;29;20079;-77
2023/01/03 08:54:31;;;;;;;20.02;3.70;;;7.60;99.90;;;6.76;100.00;102446.75;3981819;29;20043;-76
2023/01/03 08:56:33;;;;;;;16.88;3.67;;;7.70;99.90;;;6.85;100.00;102449.69;3983097;29;20087;-76
2023/01/03 08:58:34;;;;;;;16.58;2.90;;;7.80;99.90;;;6.97;100.00;102459.47;3981052;29;20042;-77
2023/01/03 09:00:38;;;;;;;12.48;3.13;;;7.90;99.90;;;7.15;100.00;102458.38;3989780;29;20057;-76
2023/01/03 09:02:39;;;;;;;11.82;3.22;;;8.10;99.90;;;7.25;100.00;102453.41;3986171;29;20039;-77
2023/01/03 09:04:40;;;;;;;13.52;2.80;;;8.10;99.90;;;7.33;100.00;102461.66;3980782;29;20095;-77
2023/01/03 09:06:41;;;;;;;12.05;4.10;;;8.30;99.90;;;7.43;100.00;102464.56;3980764;29;20042;-77
2023/01/03 09:08:42;;;;;;;16.00;3.45;;;8.40;99.90;;;7.58;100.00;102472.38;3981551;29;20031;-77
2023/01/03 09:10:43;;;;;;;10.07;3.20;;;8.50;99.90;;;7.78;100.00;102473.75;3987441;29;20055;-77
2023/01/03 09:12:44;;;;;;;12.55;4.18;;;8.70;99.90;;;7.97;100.00;102479.53;3968595;29;20035;-77
2023/01/03 09:14:45;;;;;;;17.25;3.75;;;8.80;99.90;;;8.06;100.00;102478.97;3981885;29;20403;-76
2023/01/03 09:16:45;;;;;;;17.05;4.07;;;8.90;99.90;;;8.09;100.00;102476.16;3981601;29;20065;-76
2023/01/03 09:18:46;;;;;;;15.85;3.88;;;9.00;99.90;;;8.19;100.00;102481.63;3981789;29;20400;-77
2023/01/03 09:20:51;;;;;;;9.35;3.42;;;9.10;99.90;;;8.26;100.00;102488.19;3985013;29;20033;-77
2023/01/03 09:22:52;;;;;;;18.52;3.67;;;9.10;99.90;;;8.33;100.00;102487.72;3982387;29;20027;-76
2023/01/03 09:24:54;;;;;;;15.40;3.33;;;9.20;99.90;;;8.49;100.00;102482.31;3981624;29;20061;-77
2023/01/03 09:26:55;;;;;;;18.40;3.70;;;9.30;99.90;;;8.64;100.00;102483.94;3983443;29;20041;-77
2023/01/03 09:28:56;;;;;;;16.20;2.30;;;9.50;99.90;;;8.70;100.00;102473.00;3981529;29;20034;-77
2023/01/03 09:30:57;;;;;;;17.98;2.30;;;9.60;99.90;;;8.90;100.00;102476.94;3982513;29;20063;-77
2023/01/03 09:32:58;;;;;;;11.18;2.90;;;9.70;99.90;;;8.98;100.00;102464.13;3992441;29;20440;-77